Time;durP1;ratioP1;P1;durP2;ratioP2;P2;SDS_P1;SDS_P2;PMS_P1;PMS_P2;Temp;Humidity;BMP_temperature;BMP_pressure;BME280_temperature;BME280_humidity;BME280_pressure;Samples;Min_cycle;Max_cycle;Signal;HPM_P1;HPM_P2
2021/12/27 00:01:34;;;;;;;50.60;20.43;;;-7.10;99.90;;;;;;5125779;28;20438;-49
2021/12/27 00:04:05;;;;;;;51.63;20.63;;;-7.20;99.90;;;;;;5126990;28;20467;-50
2021/12/27 00:06:35;;;;;;;44.73;18.57;;;-7.10;99.90;;;;;;5138996;28;20440;-52
2021/12/27 00:09:06;;;;;;;44.27;19.70;;;-7.00;99.90;;;;;;5140771;28;20221;-49
2021/12/27 00:11:36;;;;;;;59.10;22.77;;;-7.00;99.90;;;;;;5124931;28;20183;-50
2021/12/27 00:14:07;;;;;;;52.00;22.13;;;-7.00;99.90;;;;;;5138465;28;20668;-49
2021/12/27 00:16:38;;;;;;;62.83;19.23;;;-7.00;99.90;;;;;;5140437;28;20633;-49
2021/12/27 00:19:09;;;;;;;53.40;19.90;;;-7.00;99.90;;;;;;5142931;28;20220;-49
2021/12/27 00:21:40;;;;;;;56.07;20.23;;;-7.10;99.90;;;;;;5144086;28;20181;-51
2021/12/27 00:24:10;;;;;;;47.20;20.77;;;-7.10;99.90;;;;;;5142195;28;20459;-50
2021/12/27 00:26:41;;;;;;;57.67;20.00;;;-7.00;99.90;;;;;;5132937;28;20181;-50
2021/12/27 00:29:11;;;;;;;60.07;22.10;;;-7.10;99.90;;;;;;5141134;28;20208;-49
2021/12/27 00:31:42;;;;;;;57.30;21.70;;;-7.10;99.90;;;;;;5124246;28;20184;-50
2021/12/27 00:34:13;;;;;;;53.57;21.80;;;-7.10;99.90;;;;;;5144291;28;20196;-52
2021/12/27 00:36:44;;;;;;;47.87;21.83;;;-7.10;99.90;;;;;;5142305;28;20174;-51
2021/12/27 00:39:14;;;;;;;51.20;22.50;;;-7.10;99.90;;;;;;5143645;28;20214;-51
2021/12/27 00:41:45;;;;;;;54.20;24.77;;;-7.10;99.90;;;;;;5127072;28;20188;-52
2021/12/27 00:44:15;;;;;;;44.63;21.23;;;-7.10;99.90;;;;;;5142508;28;20218;-50
2021/12/27 00:46:46;;;;;;;60.50;22.53;;;-7.10;99.90;;;;;;5142723;28;20629;-50
2021/12/27 00:49:16;;;;;;;55.60;21.53;;;-7.20;99.90;;;;;;5137968;28;20307;-49
2021/12/27 00:51:47;;;;;;;46.43;22.50;;;-7.20;99.90;;;;;;5142597;28;20178;-49
2021/12/27 00:54:18;;;;;;;67.30;22.90;;;-7.20;99.90;;;;;;5126810;28;20650;-51
2021/12/27 00:56:49;;;;;;;50.00;22.97;;;-7.20;99.90;;;;;;5123828;28;20735;-49
2021/12/27 00:59:19;;;;;;;50.97;22.50;;;-7.10;99.90;;;;;;5140912;28;20871;-50
2021/12/27 01:01:50;;;;;;;59.00;22.20;;;-7.10;99.90;;;;;;5127014;28;20212;-50
2021/12/27 01:04:20;;;;;;;58.83;22.73;;;-7.10;99.90;;;;;;5140187;28;20205;-49
2021/12/27 01:06:51;;;;;;;67.53;23.77;;;-7.10;99.90;;;;;;5123551;28;20184;-52
2021/12/27 01:09:35;;;;;;;57.90;23.10;;;-7.20;99.90;;;;;;5141667;28;20268;-49
2021/12/27 01:15:09;;;;;;;57.07;23.80;;;-7.20;99.90;;;;;;5138192;28;20455;-50
2021/12/27 01:17:43;;;;;;;61.17;24.63;;;-7.20;99.90;;;;;;5128214;28;20444;-50
2021/12/27 01:20:17;;;;;;;62.83;25.60;;;-7.20;99.90;;;;;;5144880;28;20467;-49
2021/12/27 01:22:48;;;;;;;69.50;23.03;;;-7.10;99.90;;;;;;5146785;28;20443;-51
2021/12/27 01:25:19;;;;;;;56.73;23.90;;;-7.10;99.90;;;;;;5144970;28;20482;-50
2021/12/27 01:27:52;;;;;;;62.47;25.07;;;-7.10;99.90;;;;;;5144383;28;20500;-50
2021/12/27 01:30:22;;;;;;;66.33;24.97;;;-7.10;99.90;;;;;;5138165;28;20887;-50
2021/12/27 01:32:58;;;;;;;60.03;26.53;;;-7.10;99.90;;;;;;5147210;28;20428;-48
2021/12/27 01:35:28;;;;;;;65.17;23.03;;;-7.20;99.90;;;;;;5126855;28;20276;-50
2021/12/27 01:37:59;;;;;;;66.00;25.23;;;-7.10;99.90;;;;;;5125729;29;20521;-49
2021/12/27 01:40:31;;;;;;;72.50;26.20;;;-7.10;99.90;;;;;;5144268;28;20664;-51
2021/12/27 01:43:22;;;;;;;65.37;24.93;;;-7.10;99.90;;;;;;5130368;28;20572;-48
2021/12/27 01:45:55;;;;;;;62.23;26.23;;;-7.10;99.90;;;;;;5145465;28;20487;-49
2021/12/27 01:48:32;;;;;;;62.67;25.53;;;-7.00;99.90;;;;;;5145054;28;20439;-48
2021/12/27 01:51:04;;;;;;;65.80;26.23;;;-7.00;99.90;;;;;;5140989;28;21277;-50
2021/12/27 01:53:36;;;;;;;58.17;24.80;;;-7.00;99.90;;;;;;5129843;28;20443;-50
2021/12/27 01:56:09;;;;;;;61.83;24.50;;;-6.90;99.90;;;;;;5143169;28;20436;-51
2021/12/27 01:58:42;;;;;;;68.40;24.83;;;-7.00;99.90;;;;;;5144425;28;20460;-50
2021/12/27 02:01:13;;;;;;;74.30;27.93;;;-6.90;99.90;;;;;;5144184;28;20454;-51
2021/12/27 02:03:44;;;;;;;59.77;25.87;;;-7.00;99.90;;;;;;5124710;28;20440;-50
2021/12/27 02:06:15;;;;;;;67.20;25.17;;;-7.00;99.90;;;;;;5125169;28;20576;-49
2021/12/27 02:08:46;;;;;;;63.90;25.00;;;-7.00;99.90;;;;;;5145187;28;20900;-49
2021/12/27 02:11:18;;;;;;;73.87;27.03;;;-7.00;99.90;;;;;;5127331;28;20565;-49
2021/12/27 02:13:49;;;;;;;67.23;26.47;;;-6.90;99.90;;;;;;5131001;28;20436;-49
2021/12/27 02:16:22;;;;;;;80.93;27.80;;;-7.00;99.90;;;;;;5143500;28;20436;-51
2021/12/27 02:18:53;;;;;;;74.37;29.90;;;-7.00;99.90;;;;;;5145794;28;20482;-50
2021/12/27 02:21:25;;;;;;;70.70;28.83;;;-6.90;99.90;;;;;;5145889;28;20470;-49
2021/12/27 02:23:57;;;;;;;63.43;28.00;;;-6.90;99.90;;;;;;5140307;28;20209;-50
2021/12/27 02:26:27;;;;;;;73.73;29.43;;;-6.90;99.90;;;;;;5138761;28;20941;-50
2021/12/27 02:28:58;;;;;;;77.57;30.43;;;-6.90;99.90;;;;;;5121815;28;20464;-50
2021/12/27 02:31:29;;;;;;;68.20;26.63;;;-6.90;99.90;;;;;;5128564;28;20214;-50
2021/12/27 02:33:59;;;;;;;69.30;27.03;;;-6.90;99.90;;;;;;5127913;28;20185;-49
2021/12/27 02:36:29;;;;;;;69.80;25.90;;;-6.90;99.90;;;;;;5143760;28;20261;-50
2021/12/27 02:39:00;;;;;;;72.77;29.10;;;-6.90;99.90;;;;;;5143166;28;20225;-50
2021/12/27 02:41:31;;;;;;;69.03;27.03;;;-6.80;99.90;;;;;;5140658;28;20196;-51
2021/12/27 02:44:02;;;;;;;72.30;26.43;;;-6.80;99.90;;;;;;5139629;28;20215;-50
2021/12/27 02:46:34;;;;;;;63.90;26.50;;;-6.80;99.90;;;;;;5142855;28;20188;-51
2021/12/27 02:49:05;;;;;;;70.67;26.67;;;-6.70;99.90;;;;;;5127688;28;20465;-49
2021/12/27 02:51:35;;;;;;;66.87;27.27;;;-6.70;99.90;;;;;;5127408;28;20436;-50
2021/12/27 02:54:06;;;;;;;70.73;25.80;;;-6.70;99.90;;;;;;5148435;28;20517;-51
2021/12/27 02:56:36;;;;;;;69.27;27.50;;;-6.70;99.90;;;;;;5120714;28;20271;-51
2021/12/27 02:59:07;;;;;;;76.40;27.67;;;-6.70;99.90;;;;;;5137286;28;20213;-49
2021/12/27 03:01:37;;;;;;;69.27;29.23;;;-6.60;99.90;;;;;;5143641;28;20252;-49
2021/12/27 03:04:08;;;;;;;75.83;30.77;;;-6.60;99.90;;;;;;5126870;28;20578;-49
2021/12/27 03:06:38;;;;;;;80.87;31.73;;;-6.60;99.90;;;;;;5143017;28;20180;-49
2021/12/27 03:09:09;;;;;;;85.20;29.03;;;-6.60;99.90;;;;;;5144108;28;20211;-50
2021/12/27 03:11:39;;;;;;;89.77;29.83;;;-6.60;99.90;;;;;;5139470;28;20586;-48
2021/12/27 03:14:10;;;;;;;69.00;28.87;;;-6.60;99.90;;;;;;5127828;28;20205;-50
2021/12/27 03:16:40;;;;;;;59.97;27.30;;;-6.50;99.90;;;;;;5145390;28;20212;-49
2021/12/27 03:19:12;;;;;;;76.37;28.20;;;-6.50;99.90;;;;;;5127092;28;20515;-49
2021/12/27 03:21:42;;;;;;;74.97;25.33;;;-6.50;99.90;;;;;;5125062;28;20534;-50
2021/12/27 03:24:13;;;;;;;61.60;25.53;;;-6.50;99.90;;;;;;5124886;28;20472;-52
2021/12/27 03:26:43;;;;;;;72.57;26.17;;;-6.50;99.90;;;;;;5140035;28;20194;-51
2021/12/27 03:29:14;;;;;;;62.93;25.80;;;-6.40;99.90;;;;;;5145550;28;20733;-49
2021/12/27 03:31:44;;;;;;;68.07;26.73;;;-6.40;99.90;;;;;;5141449;28;20198;-51
2021/12/27 03:34:15;;;;;;;67.53;25.53;;;-6.40;99.90;;;;;;5145658;28;20204;-50
2021/12/27 03:36:47;;;;;;;62.33;23.23;;;-6.40;99.90;;;;;;5141282;28;20190;-49
2021/12/27 03:39:18;;;;;;;58.03;23.97;;;-6.40;99.90;;;;;;5143371;28;20607;-49
2021/12/27 03:41:48;;;;;;;64.53;25.90;;;-6.40;99.90;;;;;;5120152;28;20536;-50
2021/12/27 03:44:19;;;;;;;56.23;23.10;;;-6.40;99.90;;;;;;5139658;28;20225;-50
2021/12/27 03:46:49;;;;;;;65.07;23.60;;;-6.40;99.90;;;;;;5141250;28;20256;-49
2021/12/27 03:49:20;;;;;;;68.03;25.10;;;-6.40;99.90;;;;;;5141725;28;20655;-49
2021/12/27 03:51:50;;;;;;;70.53;27.20;;;-6.40;99.90;;;;;;5143708;28;20668;-50
2021/12/27 03:54:21;;;;;;;61.67;24.87;;;-6.40;99.90;;;;;;5142774;28;20193;-50
2021/12/27 03:56:51;;;;;;;65.67;26.50;;;-6.40;99.90;;;;;;5126081;28;20181;-51
2021/12/27 03:59:35;;;;;;;66.33;26.30;;;-6.40;99.90;;;;;;5145068;28;20239;-51
2021/12/27 04:02:06;;;;;;;69.83;25.40;;;-6.40;99.90;;;;;;5115681;28;20682;-50
2021/12/27 04:04:37;;;;;;;72.30;24.77;;;-6.40;99.90;;;;;;5121068;28;20460;-50
2021/12/27 04:07:09;;;;;;;67.37;23.80;;;-6.40;99.90;;;;;;5143887;28;20189;-49
2021/12/27 04:09:39;;;;;;;60.30;25.33;;;-6.40;99.90;;;;;;5141193;28;20480;-50
2021/12/27 04:12:10;;;;;;;64.37;25.83;;;-6.40;99.90;;;;;;5141607;28;20433;-50
2021/12/27 04:14:41;;;;;;;71.10;25.37;;;-6.40;99.90;;;;;;5122118;28;20217;-50
2021/12/27 04:17:11;;;;;;;64.30;26.57;;;-6.40;99.90;;;;;;5139538;28;20205;-52
2021/12/27 04:19:42;;;;;;;57.90;24.00;;;-6.40;99.90;;;;;;5140185;28;20210;-52
2021/12/27 04:22:12;;;;;;;69.87;23.50;;;-6.40;99.90;;;;;;5141921;28;20698;-50
2021/12/27 04:24:43;;;;;;;62.10;23.37;;;-6.40;99.90;;;;;;5142816;28;20219;-50
2021/12/27 04:27:13;;;;;;;55.87;22.60;;;-6.40;99.90;;;;;;5143868;28;20181;-50
2021/12/27 04:29:44;;;;;;;58.27;22.70;;;-6.30;99.90;;;;;;5107916;28;20196;-50
2021/12/27 04:32:14;;;;;;;56.27;24.20;;;-6.30;99.90;;;;;;5122538;28;20193;-51
2021/12/27 04:34:45;;;;;;;68.33;24.57;;;-6.30;99.90;;;;;;5141290;28;20244;-49
2021/12/27 04:37:17;;;;;;;68.43;24.03;;;-6.30;99.90;;;;;;5142236;28;20253;-50
2021/12/27 04:39:47;;;;;;;63.83;25.23;;;-6.30;99.90;;;;;;5142729;28;20983;-50
2021/12/27 04:42:18;;;;;;;62.03;25.00;;;-6.20;99.90;;;;;;5140678;28;20202;-50
2021/12/27 04:44:48;;;;;;;66.97;27.17;;;-6.10;99.90;;;;;;5118786;28;20538;-49
2021/12/27 04:47:19;;;;;;;58.97;22.27;;;-6.10;99.90;;;;;;5143046;28;20190;-50
2021/12/27 04:49:50;;;;;;;68.77;24.60;;;-6.10;99.90;;;;;;5137019;28;20251;-50
2021/12/27 04:52:20;;;;;;;63.27;25.43;;;-6.10;99.90;;;;;;5131957;28;20615;-49
2021/12/27 04:54:51;;;;;;;62.73;24.50;;;-6.10;99.90;;;;;;5141325;28;20642;-49
2021/12/27 04:57:22;;;;;;;66.37;24.80;;;-6.10;99.90;;;;;;5121732;28;20615;-51
2021/12/27 04:59:52;;;;;;;54.43;21.57;;;-6.00;99.90;;;;;;5136071;28;20206;-50
2021/12/27 05:02:23;;;;;;;80.43;26.10;;;-6.10;99.90;;;;;;5123360;28;20193;-49
2021/12/27 05:04:54;;;;;;;66.13;26.00;;;-6.00;99.90;;;;;;5140976;28;20245;-52
2021/12/27 05:07:24;;;;;;;66.70;24.67;;;-6.00;99.90;;;;;;5142456;28;20189;-51
2021/12/27 05:09:55;;;;;;;75.13;26.67;;;-6.10;99.90;;;;;;5123687;28;20293;-50
2021/12/27 05:12:26;;;;;;;65.70;24.77;;;-6.10;99.90;;;;;;5121766;28;20182;-51
2021/12/27 05:14:57;;;;;;;74.30;24.23;;;-6.10;99.90;;;;;;5119608;28;20670;-50
2021/12/27 05:17:27;;;;;;;65.37;23.87;;;-6.10;99.90;;;;;;5144151;28;20503;-50
2021/12/27 05:19:58;;;;;;;68.90;25.83;;;-6.10;99.90;;;;;;5139855;28;20201;-51
2021/12/27 05:22:28;;;;;;;72.07;26.10;;;-6.00;99.90;;;;;;5141088;28;20169;-51
2021/12/27 05:24:59;;;;;;;55.83;25.60;;;-6.00;99.90;;;;;;5139067;28;20277;-51
2021/12/27 05:27:29;;;;;;;63.40;26.20;;;-6.00;99.90;;;;;;5140351;28;20180;-49
2021/12/27 05:30:00;;;;;;;65.90;25.73;;;-5.90;99.90;;;;;;5124596;28;20201;-49
2021/12/27 05:32:31;;;;;;;61.67;24.97;;;-5.90;99.90;;;;;;5140606;28;20201;-50
2021/12/27 05:35:03;;;;;;;54.47;24.27;;;-5.90;99.90;;;;;;5124609;28;20516;-50
2021/12/27 05:37:34;;;;;;;60.60;24.20;;;-5.80;99.90;;;;;;5140501;28;20327;-49
2021/12/27 05:40:07;;;;;;;68.23;24.90;;;-5.80;99.90;;;;;;5142507;28;20476;-49
2021/12/27 05:42:38;;;;;;;62.53;24.30;;;-5.70;99.90;;;;;;5141556;28;20654;-49
2021/12/27 05:45:09;;;;;;;72.73;26.37;;;-5.70;99.90;;;;;;5139215;28;20471;-51
2021/12/27 05:47:40;;;;;;;63.93;24.60;;;-5.70;99.90;;;;;;5144494;28;20192;-49
2021/12/27 05:50:12;;;;;;;66.57;24.87;;;-5.70;99.90;;;;;;5121587;28;20473;-48
2021/12/27 05:52:43;;;;;;;76.33;25.30;;;-5.60;99.90;;;;;;5119515;28;20701;-52
2021/12/27 05:55:14;;;;;;;59.73;25.20;;;-5.60;99.90;;;;;;5140120;28;20523;-49
2021/12/27 05:57:45;;;;;;;80.97;26.77;;;-5.60;99.90;;;;;;5116316;28;20194;-49
2021/12/27 06:00:16;;;;;;;62.87;24.93;;;-5.50;99.90;;;;;;5140308;28;20472;-49
2021/12/27 06:02:47;;;;;;;64.87;25.47;;;-5.50;99.90;;;;;;5144517;28;20264;-49
2021/12/27 06:05:18;;;;;;;66.43;25.50;;;-5.50;99.90;;;;;;5127157;28;20492;-49
2021/12/27 06:07:49;;;;;;;63.03;25.30;;;-5.40;99.90;;;;;;5146526;28;20433;-49
2021/12/27 06:10:19;;;;;;;67.00;25.70;;;-5.40;99.90;;;;;;5142057;28;20613;-50
2021/12/27 06:12:50;;;;;;;68.77;25.17;;;-5.30;99.90;;;;;;5125674;28;20986;-48
2021/12/27 06:15:21;;;;;;;64.83;24.40;;;-5.40;99.90;;;;;;5126036;28;20182;-50
2021/12/27 06:17:51;;;;;;;62.03;24.60;;;-5.30;99.90;;;;;;5138985;28;20233;-51
2021/12/27 06:20:22;;;;;;;73.73;24.77;;;-5.30;99.90;;;;;;5139077;28;20781;-49
2021/12/27 06:22:57;;;;;;;69.70;23.90;;;-5.30;99.90;;;;;;5129172;28;20184;-50
2021/12/27 06:25:28;;;;;;;75.57;26.83;;;-5.20;99.90;;;;;;5140689;28;20208;-50
2021/12/27 06:27:59;;;;;;;60.17;24.30;;;-5.20;99.90;;;;;;5140150;28;20439;-52
2021/12/27 06:30:29;;;;;;;64.47;23.60;;;-5.20;99.90;;;;;;5134259;28;20473;-52
2021/12/27 06:33:00;;;;;;;56.27;23.77;;;-5.20;99.90;;;;;;5120336;28;20724;-51
2021/12/27 06:35:30;;;;;;;67.30;26.87;;;-5.20;99.90;;;;;;5138478;28;20503;-50
2021/12/27 06:38:01;;;;;;;63.03;23.67;;;-5.20;99.90;;;;;;5144720;28;20185;-49
2021/12/27 06:40:31;;;;;;;59.27;25.97;;;-5.20;99.90;;;;;;5142614;28;20753;-50
2021/12/27 06:43:02;;;;;;;66.40;25.77;;;-5.20;99.90;;;;;;5125639;28;20189;-51
2021/12/27 06:45:33;;;;;;;64.50;24.87;;;-5.20;99.90;;;;;;5141353;28;20346;-51
2021/12/27 06:48:04;;;;;;;64.17;26.00;;;-5.10;99.90;;;;;;5142033;28;20277;-53
2021/12/27 06:50:34;;;;;;;61.03;24.40;;;-5.10;99.90;;;;;;5137009;28;20206;-49
2021/12/27 06:53:05;;;;;;;71.57;26.60;;;-5.10;99.90;;;;;;5141341;28;20437;-50
2021/12/27 06:55:35;;;;;;;66.73;25.10;;;-5.10;99.90;;;;;;5136567;28;20186;-50
2021/12/27 06:58:06;;;;;;;72.13;26.33;;;-5.10;99.90;;;;;;5140273;28;20254;-50
2021/12/27 07:00:37;;;;;;;63.00;25.73;;;-5.00;99.90;;;;;;5116297;28;20201;-50
2021/12/27 07:03:07;;;;;;;51.53;24.27;;;-5.00;99.90;;;;;;5133919;28;20193;-50
2021/12/27 07:05:38;;;;;;;69.17;25.73;;;-5.00;99.90;;;;;;5102564;28;20282;-50
2021/12/27 07:08:09;;;;;;;63.83;24.73;;;-5.00;99.90;;;;;;5121751;28;20201;-51
2021/12/27 07:10:40;;;;;;;68.43;26.10;;;-4.90;99.90;;;;;;5133137;28;20237;-49
2021/12/27 07:13:10;;;;;;;73.57;25.23;;;-5.00;99.90;;;;;;5120112;28;20460;-51
2021/12/27 07:15:41;;;;;;;60.47;25.40;;;-4.90;99.90;;;;;;5139807;28;20436;-50
2021/12/27 07:18:14;;;;;;;63.50;25.53;;;-4.90;99.90;;;;;;5123507;28;20993;-50
2021/12/27 07:20:44;;;;;;;56.33;24.50;;;-4.90;99.90;;;;;;5139647;28;20799;-51
2021/12/27 07:23:15;;;;;;;65.13;25.20;;;-4.90;99.90;;;;;;5146036;28;20440;-49
2021/12/27 07:25:45;;;;;;;54.47;23.00;;;-4.80;99.90;;;;;;5134768;28;20253;-49
2021/12/27 07:28:16;;;;;;;69.60;25.70;;;-4.80;99.90;;;;;;5137873;28;20277;-50
2021/12/27 07:30:47;;;;;;;75.20;26.10;;;-4.80;99.90;;;;;;5122650;28;20198;-50
2021/12/27 07:33:17;;;;;;;60.87;24.73;;;-4.80;99.90;;;;;;5142873;28;20190;-51
2021/12/27 07:35:48;;;;;;;65.37;25.60;;;-4.70;99.90;;;;;;5137410;28;20232;-49
2021/12/27 07:38:18;;;;;;;58.40;22.97;;;-4.70;99.90;;;;;;5141656;28;20669;-49
2021/12/27 07:40:49;;;;;;;69.30;25.13;;;-4.70;99.90;;;;;;5135145;28;20211;-51
2021/12/27 07:43:20;;;;;;;66.03;25.60;;;-4.70;99.90;;;;;;5138169;28;20197;-51
2021/12/27 07:45:50;;;;;;;65.43;24.50;;;-4.70;99.90;;;;;;5122042;28;20211;-49
2021/12/27 07:48:21;;;;;;;57.30;24.33;;;-4.70;99.90;;;;;;5142096;28;20190;-51
2021/12/27 07:50:52;;;;;;;60.63;24.80;;;-4.70;99.90;;;;;;5138724;28;20186;-50
2021/12/27 07:53:22;;;;;;;68.90;25.03;;;-4.70;99.90;;;;;;5121287;28;20456;-49
2021/12/27 07:55:53;;;;;;;59.73;26.40;;;-4.70;99.90;;;;;;5138067;28;20247;-49
2021/12/27 07:58:23;;;;;;;69.10;26.17;;;-4.60;99.90;;;;;;5140402;28;20189;-50
2021/12/27 08:00:54;;;;;;;65.93;26.40;;;-4.60;99.90;;;;;;5135799;28;20179;-49
2021/12/27 08:03:24;;;;;;;65.47;26.97;;;-4.60;99.90;;;;;;5127101;28;20232;-52
2021/12/27 08:05:55;;;;;;;58.47;24.80;;;-4.60;99.90;;;;;;5126066;28;20209;-52
2021/12/27 08:08:26;;;;;;;70.10;28.67;;;-4.60;99.90;;;;;;5137341;28;20186;-53
2021/12/27 08:10:56;;;;;;;71.13;26.20;;;-4.50;99.90;;;;;;5121378;28;20190;-50
2021/12/27 08:13:27;;;;;;;58.27;26.13;;;-4.50;99.90;;;;;;5142769;28;20260;-50
2021/12/27 08:15:57;;;;;;;58.50;26.10;;;-4.50;99.90;;;;;;5122256;28;20182;-50
2021/12/27 08:18:29;;;;;;;57.50;24.33;;;-4.50;99.90;;;;;;5141250;28;20912;-48
2021/12/27 08:21:00;;;;;;;57.73;27.57;;;-4.50;99.90;;;;;;5138296;28;20207;-49
2021/12/27 08:23:31;;;;;;;68.73;25.67;;;-4.40;99.90;;;;;;5141368;28;20532;-50
2021/12/27 08:26:01;;;;;;;65.97;24.40;;;-4.30;99.90;;;;;;5138706;28;20210;-55
2021/12/27 08:28:32;;;;;;;66.57;26.30;;;-4.30;99.90;;;;;;5139455;28;20205;-51
2021/12/27 08:31:02;;;;;;;58.80;25.23;;;-4.30;99.90;;;;;;5121460;28;20173;-52
2021/12/27 08:33:33;;;;;;;70.93;27.03;;;-4.20;99.90;;;;;;5110389;28;20573;-49
2021/12/27 08:36:04;;;;;;;59.23;24.60;;;-4.20;99.90;;;;;;5115718;28;20190;-51
2021/12/27 08:38:35;;;;;;;59.90;24.27;;;-4.30;99.90;;;;;;5139421;28;20542;-52
2021/12/27 08:41:05;;;;;;;61.20;26.97;;;-4.20;99.90;;;;;;5137833;28;20463;-49
2021/12/27 08:43:36;;;;;;;63.83;25.13;;;-4.20;99.90;;;;;;5137669;28;20240;-51
2021/12/27 08:46:07;;;;;;;72.23;26.63;;;-4.20;99.90;;;;;;5139118;28;20268;-50
2021/12/27 08:48:38;;;;;;;68.73;26.50;;;-4.20;99.90;;;;;;5139748;28;20190;-50
2021/12/27 08:51:08;;;;;;;65.90;26.77;;;-4.10;99.90;;;;;;5139453;28;20182;-50
2021/12/27 08:53:40;;;;;;;62.57;26.57;;;-4.00;99.90;;;;;;5140210;28;20447;-50
2021/12/27 08:56:10;;;;;;;62.23;26.07;;;-4.00;99.90;;;;;;5117216;28;20670;-48
2021/12/27 08:58:41;;;;;;;61.93;23.97;;;-3.90;99.90;;;;;;5116800;28;20465;-49
2021/12/27 09:01:12;;;;;;;62.13;24.70;;;-3.90;99.90;;;;;;5138844;28;20622;-48
2021/12/27 09:03:42;;;;;;;61.83;24.10;;;-3.90;99.90;;;;;;5128965;28;20205;-49
2021/12/27 09:06:14;;;;;;;54.63;24.30;;;-3.90;99.90;;;;;;5131517;28;20228;-52
2021/12/27 09:08:44;;;;;;;61.03;23.70;;;-3.80;99.90;;;;;;5131897;28;20328;-50
2021/12/27 09:11:15;;;;;;;65.90;25.40;;;-3.80;99.90;;;;;;5133609;28;21136;-51
2021/12/27 09:13:45;;;;;;;50.10;25.50;;;-3.70;99.90;;;;;;5135728;28;21546;-52
2021/12/27 09:16:16;;;;;;;66.63;25.53;;;-3.60;99.90;;;;;;5117879;28;20190;-49
2021/12/27 09:18:47;;;;;;;61.30;23.90;;;-3.60;99.90;;;;;;5121079;28;20205;-50
2021/12/27 09:21:17;;;;;;;56.60;23.80;;;-3.40;99.90;;;;;;5138741;28;20268;-51
2021/12/27 09:23:48;;;;;;;64.13;23.70;;;-3.40;99.90;;;;;;5122184;28;20243;-52
2021/12/27 09:26:18;;;;;;;51.33;23.73;;;-3.30;99.90;;;;;;5139812;28;20532;-49
2021/12/27 09:28:49;;;;;;;65.60;26.00;;;-3.30;99.90;;;;;;5133556;28;20205;-50
2021/12/27 09:31:19;;;;;;;55.73;22.37;;;-3.30;99.90;;;;;;5133864;28;20209;-49
2021/12/27 09:33:50;;;;;;;56.73;24.33;;;-3.30;99.90;;;;;;5141594;28;20186;-50
2021/12/27 09:36:20;;;;;;;59.60;23.60;;;-3.20;99.90;;;;;;5141480;28;20181;-52
2021/12/27 09:38:52;;;;;;;56.63;24.27;;;-3.20;99.90;;;;;;5124004;28;20222;-52
2021/12/27 09:41:24;;;;;;;51.47;22.73;;;-3.10;99.90;;;;;;5143352;28;20188;-50
2021/12/27 09:43:55;;;;;;;56.77;22.40;;;-3.10;99.90;;;;;;5139307;28;20436;-50
2021/12/27 09:46:26;;;;;;;74.33;25.27;;;-3.10;99.90;;;;;;5126197;28;20440;-50
2021/12/27 09:49:00;;;;;;;57.70;24.53;;;-3.10;99.90;;;;;;5142826;28;20535;-49
2021/12/27 09:51:34;;;;;;;56.77;24.40;;;-3.00;99.90;;;;;;5141431;28;20209;-50
2021/12/27 09:54:05;;;;;;;60.60;25.87;;;-3.10;99.90;;;;;;5143121;28;20464;-49
2021/12/27 09:56:35;;;;;;;60.53;24.33;;;-3.00;99.90;;;;;;5127226;28;20592;-51
2021/12/27 09:59:06;;;;;;;59.20;25.67;;;-3.10;99.90;;;;;;5124167;28;20807;-50
2021/12/27 10:01:37;;;;;;;53.90;23.60;;;-3.10;99.90;;;;;;5139121;28;20204;-50
2021/12/27 10:04:11;;;;;;;67.47;24.73;;;-3.10;99.90;;;;;;5121121;28;20209;-51
2021/12/27 10:06:42;;;;;;;62.27;25.77;;;-3.10;99.90;;;;;;5135561;28;20455;-49
2021/12/27 10:09:13;;;;;;;61.93;25.30;;;-3.10;99.90;;;;;;5143851;28;20452;-50
2021/12/27 10:11:44;;;;;;;63.07;26.10;;;-3.00;99.90;;;;;;5140801;28;20216;-50
2021/12/27 10:14:19;;;;;;;64.33;25.63;;;-3.00;99.90;;;;;;5141572;28;20947;-51
2021/12/27 10:16:52;;;;;;;56.67;23.00;;;-2.90;99.90;;;;;;5141230;28;20446;-50
2021/12/27 10:19:23;;;;;;;62.43;24.73;;;-2.90;99.90;;;;;;5140101;28;20461;-49
2021/12/27 10:21:54;;;;;;;50.67;23.00;;;-2.80;99.90;;;;;;5141372;28;20433;-49
2021/12/27 10:24:29;;;;;;;55.87;23.00;;;-2.70;99.90;;;;;;5126559;28;20473;-50
2021/12/27 10:27:01;;;;;;;58.43;24.30;;;-2.70;99.90;;;;;;5132424;28;20227;-50
2021/12/27 10:29:35;;;;;;;67.03;24.20;;;-2.70;99.90;;;;;;5137585;28;20847;-49
2021/12/27 10:32:16;;;;;;;57.97;23.60;;;-2.70;99.90;;;;;;5125286;28;20773;-51
2021/12/27 10:34:49;;;;;;;65.50;27.57;;;-2.70;99.90;;;;;;5135460;28;20470;-49
2021/12/27 10:37:26;;;;;;;68.13;24.17;;;-2.60;99.90;;;;;;5140663;28;20445;-49
2021/12/27 10:40:03;;;;;;;60.23;24.10;;;-2.60;99.90;;;;;;5133955;28;20479;-51
2021/12/27 10:42:45;;;;;;;56.23;24.83;;;-2.50;99.90;;;;;;5120528;28;20564;-55
2021/12/27 10:45:19;;;;;;;58.83;25.13;;;-2.40;99.90;;;;;;5135580;28;20466;-49
2021/12/27 10:47:52;;;;;;;55.43;22.80;;;-2.40;99.90;;;;;;5141135;28;20436;-49
2021/12/27 10:50:28;;;;;;;70.20;24.50;;;-2.20;99.90;;;;;;5122217;28;20481;-49
2021/12/27 10:53:07;;;;;;;53.03;23.17;;;-2.20;99.90;;;;;;5134891;28;20830;-48
2021/12/27 10:55:40;;;;;;;57.60;24.63;;;-2.20;99.90;;;;;;5122625;28;20465;-48
2021/12/27 10:58:19;;;;;;;59.50;23.57;;;-2.10;99.90;;;;;;5124571;28;20438;-50
2021/12/27 11:01:02;;;;;;;55.40;22.80;;;-2.00;99.90;;;;;;5126580;28;20463;-49
2021/12/27 11:03:36;;;;;;;56.13;23.60;;;-2.10;99.90;;;;;;5129330;28;20452;-49
2021/12/27 11:06:09;;;;;;;60.30;24.70;;;-2.10;99.90;;;;;;5127089;28;20498;-48
2021/12/27 11:08:45;;;;;;;61.07;23.93;;;-2.20;99.90;;;;;;5140956;28;20480;-49
2021/12/27 11:11:17;;;;;;;63.87;23.53;;;-2.20;99.90;;;;;;5141284;28;20867;-48
2021/12/27 11:13:51;;;;;;;66.10;24.10;;;-2.30;99.90;;;;;;5124000;28;20447;-49
2021/12/27 11:16:22;;;;;;;58.63;23.80;;;-2.30;99.90;;;;;;5121850;28;21086;-50
2021/12/27 11:18:54;;;;;;;63.57;23.50;;;-2.30;99.90;;;;;;5122229;28;20457;-51
2021/12/27 11:21:32;;;;;;;63.07;23.80;;;-2.20;99.90;;;;;;5138308;28;20191;-50
2021/12/27 11:24:04;;;;;;;59.90;23.73;;;-2.20;99.90;;;;;;5141857;28;20425;-51
2021/12/27 11:26:38;;;;;;;61.97;23.33;;;-2.10;99.90;;;;;;5125322;28;20451;-50
2021/12/27 11:29:20;;;;;;;59.77;25.13;;;-2.00;99.90;;;;;;5124676;28;20462;-50
2021/12/27 11:32:15;;;;;;;60.13;23.73;;;-1.90;99.90;;;;;;5141114;28;20432;-49
2021/12/27 11:34:59;;;;;;;58.77;23.43;;;-1.90;99.90;;;;;;5138310;28;20965;-49
2021/12/27 11:37:41;;;;;;;61.10;25.50;;;-1.80;99.90;;;;;;5119550;28;20480;-49
2021/12/27 11:40:16;;;;;;;52.33;22.80;;;-1.80;99.90;;;;;;5123405;28;21075;-50
2021/12/27 11:42:58;;;;;;;64.53;23.53;;;-1.80;99.90;;;;;;5121302;28;20938;-49
2021/12/27 11:45:45;;;;;;;65.67;24.37;;;-1.70;99.90;;;;;;5137662;28;20557;-48
2021/12/27 11:48:22;;;;;;;62.43;23.47;;;-1.60;99.90;;;;;;5135386;28;20528;-48
2021/12/27 11:50:58;;;;;;;56.07;23.03;;;-1.50;99.90;;;;;;5137660;28;20544;-49
2021/12/27 11:53:33;;;;;;;48.53;21.83;;;-1.60;99.90;;;;;;5138219;28;20469;-50
2021/12/27 11:56:10;;;;;;;61.17;23.83;;;-1.60;99.90;;;;;;5136568;28;20473;-51
2021/12/27 11:58:44;;;;;;;51.23;23.07;;;-1.60;99.90;;;;;;5134726;28;20465;-50
2021/12/27 12:01:21;;;;;;;47.37;22.07;;;-1.60;99.90;;;;;;5132758;28;20846;-50
2021/12/27 12:03:55;;;;;;;54.00;21.57;;;-1.50;99.90;;;;;;5129975;28;20536;-49
2021/12/27 12:06:44;;;;;;;64.07;23.50;;;-1.50;99.90;;;;;;5135585;28;20440;-48
2021/12/27 12:09:20;;;;;;;55.60;23.30;;;-1.50;99.90;;;;;;5123103;28;20563;-49
2021/12/27 12:12:02;;;;;;;57.70;23.60;;;-1.40;99.90;;;;;;5134926;28;20967;-51
2021/12/27 12:14:35;;;;;;;54.10;22.67;;;-1.40;99.90;;;;;;5138905;28;20452;-51
2021/12/27 12:17:10;;;;;;;59.03;21.77;;;-1.30;99.90;;;;;;5124242;28;20421;-50
2021/12/27 12:19:46;;;;;;;51.30;21.97;;;-1.30;99.90;;;;;;5134766;28;20934;-49
2021/12/27 12:22:37;;;;;;;48.27;22.07;;;-1.20;99.90;;;;;;5136252;28;20921;-50
2021/12/27 12:25:23;;;;;;;50.40;22.87;;;-1.10;99.90;;;;;;5135123;28;20511;-49
2021/12/27 12:27:59;;;;;;;63.53;23.43;;;-1.00;99.90;;;;;;5140227;28;21038;-48
2021/12/27 12:30:35;;;;;;;47.27;20.50;;;-1.00;99.90;;;;;;5138185;28;20449;-48
2021/12/27 12:33:06;;;;;;;51.20;22.97;;;-0.90;99.90;;;;;;5119476;28;20437;-49
2021/12/27 12:35:41;;;;;;;56.50;20.87;;;-0.80;99.90;;;;;;5114431;28;20445;-49
2021/12/27 12:38:33;;;;;;;52.93;21.67;;;-0.70;99.90;;;;;;5114807;28;20653;-47
2021/12/27 12:41:20;;;;;;;65.67;22.50;;;-0.60;99.90;;;;;;5131644;28;20494;-48
2021/12/27 12:43:55;;;;;;;61.53;22.00;;;-0.80;99.90;;;;;;5136190;28;20470;-50
2021/12/27 12:46:42;;;;;;;57.50;22.20;;;-0.90;99.90;;;;;;5135120;28;20450;-49
2021/12/27 12:49:17;;;;;;;46.27;21.37;;;-1.00;99.90;;;;;;5120857;28;20525;-49
2021/12/27 12:51:50;;;;;;;56.40;23.23;;;-1.20;99.90;;;;;;5120973;28;20435;-50
2021/12/27 12:54:23;;;;;;;46.60;21.10;;;-1.10;99.90;;;;;;5119363;28;20441;-49
2021/12/27 12:57:04;;;;;;;61.67;23.30;;;-1.10;99.90;;;;;;5140855;28;20429;-51